Time;durP1;ratioP1;P1;durP2;ratioP2;P2;SDS_P1;SDS_P2;PMS_P1;PMS_P2;Temp;Humidity;BMP_temperature;BMP_pressure;BME280_temperature;BME280_humidity;BME280_pressure;Samples;Min_cycle;Max_cycle;Signal;HPM_P1;HPM_P2
2023/05/22 00:00:41;;;;;;;8.73;7.93;;;;;;;14.01;74.50;94659.53;5075173;28;20205;-63
2023/05/22 00:03:13;;;;;;;7.60;6.88;;;;;;;14.01;74.18;94653.19;5075952;28;20278;-63
2023/05/22 00:05:42;;;;;;;7.60;6.90;;;;;;;14.05;74.07;94652.06;5075687;28;20205;-63
2023/05/22 00:08:12;;;;;;;7.47;6.65;;;;;;;14.10;74.35;94654.44;5074683;28;20219;-63
2023/05/22 00:10:40;;;;;;;9.32;7.68;;;;;;;14.11;74.35;94655.25;5075857;28;20186;-63
2023/05/22 00:13:09;;;;;;;7.65;6.88;;;;;;;14.09;74.94;94652.88;5073920;28;20224;-63
2023/05/22 00:15:36;;;;;;;7.80;7.03;;;;;;;14.09;74.76;94660.38;5075932;28;20291;-63
2023/05/22 00:18:05;;;;;;;7.55;6.72;;;;;;;14.08;74.95;94656.00;5074312;28;20229;-63
2023/05/22 00:20:37;;;;;;;7.32;6.10;;;;;;;14.05;74.95;94657.59;5074917;28;20204;-63
2023/05/22 00:23:08;;;;;;;6.97;6.25;;;;;;;14.08;74.93;94658.78;5074605;28;20536;-63
2023/05/22 00:25:39;;;;;;;8.00;6.05;;;;;;;14.12;74.78;94657.63;5075607;28;20189;-63
2023/05/22 00:28:16;;;;;;;6.97;6.28;;;;;;;14.13;74.77;94667.56;5075542;28;20189;-63
2023/05/22 00:30:45;;;;;;;6.63;6.03;;;;;;;14.14;74.78;94662.81;5074499;28;20529;-63
2023/05/22 00:33:14;;;;;;;7.05;6.35;;;;;;;14.17;74.28;94662.81;5074516;28;20221;-63
2023/05/22 00:35:47;;;;;;;7.00;6.32;;;;;;;14.20;74.10;94661.25;5075217;28;20561;-63
2023/05/22 00:38:29;;;;;;;6.85;6.25;;;;;;;14.23;73.75;94660.47;5074482;28;20197;-63
2023/05/22 00:40:56;;;;;;;6.60;6.00;;;;;;;14.25;73.76;94672.00;5074476;28;20258;-62
2023/05/22 00:43:27;;;;;;;6.80;6.20;;;;;;;14.28;73.16;94667.66;5075063;28;20185;-62
2023/05/22 00:45:57;;;;;;;6.88;6.18;;;;;;;14.30;73.13;94660.50;5074223;28;20221;-63
2023/05/22 00:48:26;;;;;;;6.90;6.30;;;;;;;14.29;73.64;94666.47;5075363;28;20185;-63
2023/05/22 00:50:57;;;;;;;7.72;6.38;;;;;;;14.27;73.88;94668.81;5074370;28;20197;-63
2023/05/22 00:53:26;;;;;;;8.30;6.38;;;;;;;14.22;73.96;94664.44;5074984;28;20640;-63
2023/05/22 00:55:56;;;;;;;7.53;6.82;;;;;;;14.17;73.92;94662.81;5074475;28;20246;-63
2023/05/22 00:58:26;;;;;;;7.63;7.03;;;;;;;14.15;74.39;94665.19;5074321;28;20189;-63
2023/05/22 01:00:54;;;;;;;7.15;6.45;;;;;;;14.14;74.11;94671.13;5075122;28;20273;-63
2023/05/22 01:03:24;;;;;;;7.35;6.75;;;;;;;14.11;74.23;94667.13;5074287;28;20197;-63
2023/05/22 01:05:55;;;;;;;7.68;6.38;;;;;;;14.11;74.14;94655.25;5074707;28;20291;-63
2023/05/22 01:08:23;;;;;;;7.45;6.07;;;;;;;14.10;74.29;94662.78;5074506;28;20215;-63
2023/05/22 01:10:57;;;;;;;8.65;6.78;;;;;;;14.08;74.07;94650.47;5074653;28;20208;-63
2023/05/22 01:13:42;;;;;;;7.18;6.53;;;;;;;14.06;73.84;94661.16;5074456;28;20339;-63
2023/05/22 01:16:17;;;;;;;6.90;6.30;;;;;;;13.97;74.40;94662.28;5075139;28;20199;-63
2023/05/22 01:18:54;;;;;;;7.10;6.50;;;;;;;13.90;74.89;94664.97;5074511;28;20240;-63
2023/05/22 01:21:35;;;;;;;8.48;6.82;;;;;;;13.83;74.95;94664.13;5077201;28;20195;-63
2023/05/22 01:24:26;;;;;;;7.47;6.72;;;;;;;13.80;74.76;94664.91;5078879;28;20192;-63
2023/05/22 01:27:27;;;;;;;6.88;6.20;;;;;;;13.81;74.51;94664.53;5051447;28;20255;-63
2023/05/22 01:30:07;;;;;;;7.07;6.38;;;;;;;13.87;74.08;94660.22;5077808;28;20203;-63
2023/05/22 01:32:37;;;;;;;7.25;6.65;;;;;;;13.85;74.51;94657.03;5078198;28;20188;-63
2023/05/22 01:35:07;;;;;;;7.55;6.55;;;;;;;13.76;74.89;94655.75;5077737;28;20253;-63
2023/05/22 01:37:36;;;;;;;7.63;6.07;;;;;;;13.72;75.21;94656.56;5077861;28;20286;-63
2023/05/22 01:40:06;;;;;;;8.18;6.78;;;;;;;13.69;75.66;94648.19;5078564;28;20203;-63
2023/05/22 01:42:34;;;;;;;7.38;6.72;;;;;;;13.61;75.90;94652.06;5078407;28;20593;-63
2023/05/22 01:45:02;;;;;;;7.25;6.55;;;;;;;13.56;76.10;94650.44;5078687;28;20203;-63
2023/05/22 01:47:32;;;;;;;6.97;6.38;;;;;;;13.50;76.03;94649.19;5078839;28;20238;-63
2023/05/22 01:50:02;;;;;;;7.07;6.47;;;;;;;13.42;76.26;94648.34;5077693;28;20219;-63
2023/05/22 01:52:34;;;;;;;7.65;6.55;;;;;;;13.40;76.32;94644.38;5077619;28;20212;-63
2023/05/22 01:55:12;;;;;;;7.20;6.50;;;;;;;13.41;76.54;94649.53;5078355;28;20209;-63
2023/05/22 01:57:55;;;;;;;8.07;7.25;;;;;;;13.36;76.72;94644.34;5061912;28;20598;-63
2023/05/22 02:00:28;;;;;;;7.78;6.97;;;;;;;13.36;77.24;94643.53;5077500;28;20200;-63
2023/05/22 02:02:59;;;;;;;7.97;7.28;;;;;;;13.34;76.93;94649.47;5078236;28;20196;-63
2023/05/22 02:05:32;;;;;;;8.23;7.40;;;;;;;13.34;76.82;94643.91;5078154;28;20195;-63
2023/05/22 02:08:00;;;;;;;9.68;6.85;;;;;;;13.32;77.21;94643.50;5077902;28;20207;-63
2023/05/22 02:10:29;;;;;;;8.40;6.75;;;;;;;13.27;76.98;94643.06;5077304;28;20204;-63
2023/05/22 02:12:59;;;;;;;7.65;6.88;;;;;;;13.26;77.22;94647.00;5076841;28;20228;-63
2023/05/22 02:15:30;;;;;;;8.00;7.20;;;;;;;13.21;77.59;94643.34;5077587;28;20229;-63
2023/05/22 02:18:02;;;;;;;7.93;7.00;;;;;;;13.11;77.58;94648.78;5076688;28;20244;-63
2023/05/22 02:20:31;;;;;;;8.27;7.57;;;;;;;13.11;78.05;94652.38;5076820;28;20272;-63
2023/05/22 02:23:00;;;;;;;8.95;7.28;;;;;;;12.96;77.70;94654.19;5076767;28;20185;-63
2023/05/22 02:25:28;;;;;;;7.30;6.70;;;;;;;12.90;77.84;94649.34;5075477;28;20200;-63
2023/05/22 02:27:56;;;;;;;8.23;7.47;;;;;;;12.93;77.92;94646.63;5075861;28;20204;-63
2023/05/22 02:30:24;;;;;;;8.25;7.45;;;;;;;12.95;77.88;94646.25;5075913;28;20208;-63
2023/05/22 02:32:53;;;;;;;9.45;7.60;;;;;;;12.86;78.33;94646.53;5075934;28;20193;-63
2023/05/22 02:35:21;;;;;;;8.85;7.68;;;;;;;12.85;77.95;94644.94;5076541;28;20219;-63
2023/05/22 02:37:50;;;;;;;7.40;6.70;;;;;;;12.83;77.70;94652.84;5076266;28;20192;-63
2023/05/22 02:40:18;;;;;;;9.18;7.55;;;;;;;12.87;77.63;94641.81;5075552;28;20205;-63
2023/05/22 02:42:46;;;;;;;9.10;7.75;;;;;;;12.87;78.07;94652.88;5076476;28;20193;-63
2023/05/22 02:45:13;;;;;;;8.63;7.25;;;;;;;12.81;77.75;94649.63;5075523;28;20205;-63
2023/05/22 02:47:44;;;;;;;9.55;7.88;;;;;;;12.74;77.81;94647.59;5075165;28;20201;-63
2023/05/22 02:50:13;;;;;;;7.97;7.18;;;;;;;12.64;78.02;94639.97;5075403;28;20193;-63
2023/05/22 02:52:41;;;;;;;8.60;7.65;;;;;;;12.61;78.16;94634.38;5075535;28;20232;-63
2023/05/22 02:55:14;;;;;;;8.90;7.22;;;;;;;12.62;78.08;94642.28;5074902;28;20668;-63
2023/05/22 02:57:42;;;;;;;8.90;7.38;;;;;;;12.66;78.08;94639.56;5076287;28;20186;-63
2023/05/22 03:00:12;;;;;;;28.13;21.00;;;;;;;12.64;78.12;94641.94;5076478;28;20189;-63
2023/05/22 03:02:42;;;;;;;15.40;12.27;;;;;;;12.63;78.25;94643.88;5076084;28;20246;-63
2023/05/22 03:05:16;;;;;;;13.13;11.23;;;;;;;12.62;78.38;94645.06;5075235;28;20193;-63
2023/05/22 03:07:44;;;;;;;10.07;8.00;;;;;;;12.66;78.50;94648.66;5075838;28;20361;-63
2023/05/22 03:10:16;;;;;;;12.68;7.38;;;;;;;12.67;78.23;94643.94;5076228;28;20186;-63
2023/05/22 03:12:46;;;;;;;8.32;7.53;;;;;;;12.65;78.17;94649.06;5075951;28;20197;-63
2023/05/22 03:15:15;;;;;;;8.38;7.57;;;;;;;12.67;77.93;94641.97;5074949;28;20224;-63
2023/05/22 03:17:43;;;;;;;8.60;7.70;;;;;;;12.71;78.03;94645.59;5030127;28;1300623;-63
2023/05/22 03:20:15;;;;;;;8.32;7.53;;;;;;;12.75;78.52;94648.41;5076901;28;20217;-63
2023/05/22 03:22:44;;;;;;;8.73;7.82;;;;;;;12.79;78.10;94648.44;5076015;28;20199;-63
2023/05/22 03:25:11;;;;;;;8.02;7.15;;;;;;;12.81;77.73;94635.78;5076646;28;20193;-62
2023/05/22 03:27:41;;;;;;;8.93;7.97;;;;;;;12.83;77.97;94646.50;5075716;28;20240;-63
2023/05/22 03:30:16;;;;;;;8.60;7.82;;;;;;;12.82;78.06;94645.72;5076077;28;20214;-63
2023/05/22 03:32:46;;;;;;;9.18;8.13;;;;;;;12.83;78.20;94643.75;5075412;28;20194;-63
2023/05/22 03:35:18;;;;;;;8.75;7.85;;;;;;;12.84;78.65;94645.31;5059655;28;20284;-64
2023/05/22 03:37:49;;;;;;;9.05;7.72;;;;;;;12.83;78.38;94647.28;5076643;28;20286;-62
2023/05/22 03:40:20;;;;;;;8.45;7.65;;;;;;;12.86;78.25;94645.75;5076263;28;20185;-62
2023/05/22 03:42:50;;;;;;;9.80;8.13;;;;;;;12.86;78.52;94648.53;5075148;28;20243;-62
2023/05/22 03:45:19;;;;;;;9.07;7.85;;;;;;;12.89;78.98;94654.09;5075737;28;20204;-62
2023/05/22 03:47:49;;;;;;;9.43;8.00;;;;;;;12.83;79.12;94655.59;5075143;28;20193;-62
2023/05/22 03:50:18;;;;;;;11.02;8.52;;;;;;;12.79;79.26;94648.44;5076257;28;20268;-62
2023/05/22 03:52:47;;;;;;;10.20;7.60;;;;;;;12.80;79.35;94652.78;5075285;28;20254;-62
2023/05/22 03:55:16;;;;;;;8.88;7.97;;;;;;;12.82;78.88;94654.00;5076141;28;20278;-62
2023/05/22 03:57:46;;;;;;;8.95;8.02;;;;;;;12.83;79.03;94654.81;5075206;28;20203;-63
2023/05/22 04:00:20;;;;;;;9.90;8.02;;;;;;;12.82;79.29;94653.19;5076215;28;20228;-62
2023/05/22 04:02:49;;;;;;;9.40;8.50;;;;;;;12.82;79.27;94653.19;5075029;28;20193;-62
2023/05/22 04:05:19;;;;;;;9.20;8.23;;;;;;;12.83;79.55;94652.03;5075059;28;20212;-62
2023/05/22 04:07:49;;;;;;;10.02;8.68;;;;;;;12.82;79.95;94658.72;5075188;28;20197;-62
2023/05/22 04:10:21;;;;;;;12.43;8.82;;;;;;;12.80;79.86;94650.81;5074764;28;20201;-62
2023/05/22 04:12:50;;;;;;;10.60;8.95;;;;;;;12.83;79.92;94649.28;5075915;28;20205;-62
2023/05/22 04:15:23;;;;;;;10.30;8.77;;;;;;;12.85;80.03;94650.47;5075158;28;20216;-64
2023/05/22 04:17:54;;;;;;;13.98;9.15;;;;;;;12.89;80.18;94653.28;5074417;28;20232;-62
2023/05/22 04:20:23;;;;;;;12.50;9.13;;;;;;;12.92;80.44;94663.59;5075624;28;20221;-63
2023/05/22 04:22:51;;;;;;;13.45;8.98;;;;;;;12.91;80.39;94646.19;5074889;28;20204;-66
2023/05/22 04:25:19;;;;;;;11.30;8.90;;;;;;;12.93;80.31;94646.63;5074771;28;20203;-65
2023/05/22 04:27:47;;;;;;;11.70;9.43;;;;;;;12.95;80.44;94649.81;5075527;28;20506;-69
2023/05/22 04:30:18;;;;;;;12.80;9.23;;;;;;;12.96;80.75;94653.38;5074682;28;20193;-65
2023/05/22 04:32:53;;;;;;;11.23;10.13;;;;;;;12.98;80.71;94653.78;5075359;28;20291;-65
2023/05/22 04:35:21;;;;;;;12.52;9.55;;;;;;;13.02;80.98;94663.72;5074575;28;20223;-65
2023/05/22 04:37:49;;;;;;;11.57;9.80;;;;;;;13.04;81.10;94663.38;5074480;28;20204;-65
2023/05/22 04:40:17;;;;;;;11.35;9.23;;;;;;;13.08;81.48;94661.44;5075377;28;20196;-65
2023/05/22 04:42:47;;;;;;;11.13;9.50;;;;;;;13.14;81.28;94668.19;5074939;28;20208;-65
2023/05/22 04:45:18;;;;;;;14.98;10.07;;;;;;;13.20;81.24;94663.13;5074178;28;20197;-65
2023/05/22 04:47:48;;;;;;;11.38;9.18;;;;;;;13.24;81.24;94669.53;5075318;28;20196;-67
2023/05/22 04:50:17;;;;;;;12.43;9.95;;;;;;;13.28;81.25;94667.59;5074411;28;20609;-66
2023/05/22 04:52:45;;;;;;;11.60;9.70;;;;;;;13.33;81.67;94669.25;5075252;28;20203;-65
2023/05/22 04:55:14;;;;;;;11.90;10.00;;;;;;;13.40;81.39;94669.31;5075069;28;20299;-65
2023/05/22 04:57:44;;;;;;;15.02;9.38;;;;;;;13.43;81.24;94666.56;5075262;28;20243;-65
2023/05/22 05:00:15;;;;;;;11.02;9.48;;;;;;;13.48;79.99;94669.00;5074346;28;20252;-65
2023/05/22 05:02:45;;;;;;;9.40;8.50;;;;;;;13.52;79.52;94668.22;5074338;28;20204;-65
2023/05/22 05:05:14;;;;;;;8.90;8.07;;;;;;;13.55;78.37;94670.25;5074872;28;20196;-65
2023/05/22 05:07:43;;;;;;;9.50;8.60;;;;;;;13.60;77.39;94676.22;5074751;28;20200;-65
2023/05/22 05:10:11;;;;;;;10.40;8.32;;;;;;;13.64;77.33;94682.59;5074263;28;20220;-65
2023/05/22 05:12:41;;;;;;;8.90;8.07;;;;;;;13.72;76.61;94677.91;5075192;28;20190;-65
2023/05/22 05:15:09;;;;;;;9.32;8.50;;;;;;;13.78;76.41;94675.59;5074015;28;20270;-65
2023/05/22 05:17:38;;;;;;;9.45;8.07;;;;;;;13.82;76.02;94685.53;5073635;28;20262;-65
2023/05/22 05:20:13;;;;;;;9.35;8.20;;;;;;;13.86;76.17;94683.56;5074170;28;20197;-65
2023/05/22 05:22:44;;;;;;;9.95;8.43;;;;;;;13.90;76.68;94680.81;5074037;28;20196;-65
2023/05/22 05:25:12;;;;;;;9.93;8.68;;;;;;;13.93;76.86;94683.63;5074986;28;20189;-65
2023/05/22 05:27:40;;;;;;;11.27;8.93;;;;;;;13.95;76.98;94684.06;5074925;28;20189;-65
2023/05/22 05:30:11;;;;;;;10.75;8.70;;;;;;;13.97;76.54;94684.44;5074607;28;20193;-65
2023/05/22 05:32:38;;;;;;;9.40;8.48;;;;;;;14.01;75.73;94678.94;5074897;28;20184;-65
2023/05/22 05:35:07;;;;;;;10.48;8.20;;;;;;;14.06;75.57;94686.91;5073698;28;20213;-65
2023/05/22 05:37:36;;;;;;;8.90;8.10;;;;;;;14.10;75.15;94682.19;5075191;28;20196;-65
2023/05/22 05:40:12;;;;;;;8.60;7.47;;;;;;;14.14;74.89;94683.00;5074056;28;20287;-65
2023/05/22 05:42:41;;;;;;;8.30;7.50;;;;;;;14.18;74.79;94683.81;5073539;28;20284;-65
2023/05/22 05:45:13;;;;;;;9.70;8.43;;;;;;;14.22;74.87;94689.41;5074724;28;20174;-65
2023/05/22 05:47:40;;;;;;;8.93;7.40;;;;;;;14.23;74.79;94684.63;5074378;28;20516;-65
2023/05/22 05:50:08;;;;;;;8.13;7.40;;;;;;;14.24;75.00;94692.59;5074603;28;20194;-65
2023/05/22 05:52:41;;;;;;;8.77;7.97;;;;;;;14.28;74.31;94690.63;5073674;28;20613;-65
2023/05/22 05:55:18;;;;;;;9.88;7.65;;;;;;;14.31;74.39;94687.09;5073265;28;20221;-65
2023/05/22 05:57:46;;;;;;;8.95;8.00;;;;;;;14.37;73.79;94687.50;5074473;28;20609;-65
2023/05/22 06:00:14;;;;;;;9.32;7.53;;;;;;;14.42;72.63;94687.97;5073823;28;20578;-65
2023/05/22 06:02:42;;;;;;;7.80;7.10;;;;;;;14.49;73.01;94691.94;5074655;28;20196;-65
2023/05/22 06:05:14;;;;;;;8.35;7.55;;;;;;;14.54;72.11;94689.63;5074521;28;20185;-65
2023/05/22 06:07:42;;;;;;;7.80;7.00;;;;;;;14.60;71.44;94681.75;5076319;28;20254;-65
2023/05/22 06:10:15;;;;;;;8.75;7.70;;;;;;;14.64;71.85;94688.91;5077870;28;20529;-65
2023/05/22 06:12:44;;;;;;;7.88;7.18;;;;;;;14.69;71.35;94693.28;5077303;28;20268;-65
2023/05/22 06:15:13;;;;;;;8.35;6.95;;;;;;;14.73;70.69;94687.75;5078044;28;20232;-65
2023/05/22 06:17:41;;;;;;;7.65;6.95;;;;;;;14.76;70.32;94686.97;5077931;28;20276;-65
2023/05/22 06:20:13;;;;;;;8.73;6.45;;;;;;;14.80;70.25;94687.78;5077065;28;20678;-65
2023/05/22 06:22:42;;;;;;;9.35;6.95;;;;;;;14.84;70.17;94685.81;5077053;28;20205;-65
2023/05/22 06:25:12;;;;;;;11.45;7.00;;;;;;;14.88;69.73;94692.19;5077901;28;20181;-65
2023/05/22 06:27:44;;;;;;;7.65;6.28;;;;;;;14.91;68.84;94689.44;5076688;28;20189;-65
2023/05/22 06:30:17;;;;;;;6.25;5.65;;;;;;;14.97;69.12;94689.06;5076732;28;20197;-65
2023/05/22 06:32:45;;;;;;;6.47;5.80;;;;;;;15.06;69.25;94687.50;5077655;28;20568;-65
2023/05/22 06:35:14;;;;;;;7.60;6.90;;;;;;;15.17;69.39;94687.53;5077664;28;20209;-65
2023/05/22 06:37:42;;;;;;;8.40;6.93;;;;;;;15.23;69.60;94683.22;5076962;28;20212;-65
2023/05/22 06:40:15;;;;;;;7.32;6.55;;;;;;;15.32;69.46;94674.50;5076735;28;20226;-65
2023/05/22 06:42:43;;;;;;;7.80;6.13;;;;;;;15.41;69.13;94677.69;5076881;28;20765;-65
2023/05/22 06:45:16;;;;;;;7.35;6.60;;;;;;;15.47;68.79;94676.13;5077455;28;20504;-65
2023/05/22 06:47:47;;;;;;;8.70;7.00;;;;;;;15.54;69.38;94683.66;5077301;28;20193;-65
2023/05/22 06:50:14;;;;;;;7.22;6.53;;;;;;;15.63;67.87;94679.31;5077542;28;20250;-65
2023/05/22 06:52:43;;;;;;;5.47;4.88;;;;;;;15.73;66.17;94683.34;5076661;28;20258;-65
2023/05/22 06:55:16;;;;;;;7.82;5.88;;;;;;;15.78;64.87;94682.16;5077014;28;20245;-65
2023/05/22 06:57:46;;;;;;;6.97;5.53;;;;;;;15.93;61.78;94680.97;5077291;28;20212;-65
2023/05/22 07:00:17;;;;;;;8.00;7.10;;;;;;;16.07;60.94;94680.19;5076536;28;20189;-65
2023/05/22 07:02:52;;;;;;;8.55;6.70;;;;;;;16.13;62.11;94681.38;5076319;28;20291;-65
2023/05/22 07:05:20;;;;;;;6.07;5.45;;;;;;;16.19;61.98;94684.53;5077124;28;20200;-65
2023/05/22 07:07:48;;;;;;;6.10;5.28;;;;;;;16.21;61.79;94687.72;5077377;28;20526;-65
2023/05/22 07:10:20;;;;;;;5.88;5.25;;;;;;;16.22;61.54;94689.31;5076194;28;20189;-65
2023/05/22 07:12:47;;;;;;;6.60;5.60;;;;;;;16.25;61.46;94680.97;5076140;28;20205;-66
2023/05/22 07:15:18;;;;;;;7.25;6.53;;;;;;;16.29;61.01;94681.75;5077308;28;20212;-65
2023/05/22 07:17:48;;;;;;;6.43;5.57;;;;;;;16.34;61.40;94686.94;5075169;28;20239;-65
2023/05/22 07:20:15;;;;;;;7.13;5.90;;;;;;;16.37;60.78;94691.69;5075899;28;20526;-65
2023/05/22 07:22:45;;;;;;;6.40;5.80;;;;;;;16.46;61.42;94679.38;5076146;28;20231;-65
2023/05/22 07:25:16;;;;;;;11.23;6.20;;;;;;;16.53;61.54;94682.94;5076589;28;20231;-65
2023/05/22 07:27:52;;;;;;;9.68;6.07;;;;;;;16.61;61.44;94681.72;5077037;28;20213;-66
2023/05/22 07:30:23;;;;;;;6.28;5.55;;;;;;;16.67;61.42;94684.91;5059823;28;20196;-65
2023/05/22 07:32:49;;;;;;;5.88;5.38;;;;;;;16.71;61.15;94677.31;5076688;28;20182;-65
2023/05/22 07:35:16;;;;;;;9.00;6.13;;;;;;;16.75;61.44;94680.13;5076513;28;20225;-65
2023/05/22 07:37:46;;;;;;;5.70;5.03;;;;;;;16.83;60.22;94668.56;5075689;28;20609;-65
2023/05/22 07:40:14;;;;;;;6.22;5.13;;;;;;;16.91;59.27;94674.88;5075519;28;20291;-65
2023/05/22 07:42:42;;;;;;;8.18;5.82;;;;;;;16.95;58.53;94672.09;5075534;28;20185;-65
2023/05/22 07:45:14;;;;;;;7.00;5.95;;;;;;;16.99;59.05;94670.09;5076293;28;20208;-65
2023/05/22 07:47:44;;;;;;;6.22;5.55;;;;;;;16.95;57.08;94667.31;5076358;28;20200;-65
2023/05/22 07:50:11;;;;;;;5.60;5.10;;;;;;;16.91;57.05;94672.09;5076197;28;20276;-65
2023/05/22 07:52:42;;;;;;;8.70;5.65;;;;;;;16.89;57.10;94668.94;5075981;28;20185;-65
2023/05/22 07:55:12;;;;;;;7.97;5.35;;;;;;;16.91;57.83;94668.53;5075093;28;20209;-65
2023/05/22 07:57:42;;;;;;;8.00;6.30;;;;;;;16.96;57.10;94668.91;5075236;28;20201;-65
2023/05/22 08:00:16;;;;;;;8.30;6.00;;;;;;;16.99;57.79;94667.31;5076175;28;20189;-65
2023/05/22 08:02:46;;;;;;;7.63;5.65;;;;;;;17.13;58.76;94664.44;5075265;28;20185;-65
2023/05/22 08:05:17;;;;;;;6.07;5.25;;;;;;;17.22;56.50;94673.19;5074803;28;20234;-65
2023/05/22 08:07:46;;;;;;;7.18;5.63;;;;;;;17.30;57.91;94671.16;5075557;28;20609;-65
2023/05/22 08:10:18;;;;;;;6.18;4.97;;;;;;;17.44;57.04;94668.28;5074813;28;20213;-65
2023/05/22 08:12:45;;;;;;;5.45;4.53;;;;;;;17.55;55.33;94671.03;5075937;28;20181;-65
2023/05/22 08:15:16;;;;;;;5.75;5.13;;;;;;;17.62;57.83;94668.19;5075823;28;20222;-65
2023/05/22 08:17:47;;;;;;;7.93;5.68;;;;;;;17.72;55.68;94672.09;5074874;28;20225;-65
2023/05/22 08:20:15;;;;;;;6.18;4.32;;;;;;;17.71;53.63;94668.50;5074623;28;20193;-64
2023/05/22 08:22:43;;;;;;;4.85;4.32;;;;;;;17.79;54.35;94672.88;5074731;28;20209;-67
2023/05/22 08:25:11;;;;;;;4.43;4.05;;;;;;;17.90;53.25;94666.41;5075645;28;20181;-67
2023/05/22 08:27:42;;;;;;;5.93;4.57;;;;;;;17.94;52.74;94662.41;5075627;28;20193;-67
2023/05/22 08:30:13;;;;;;;7.07;4.97;;;;;;;18.09;54.91;94659.53;5075245;28;20221;-67
2023/05/22 08:32:42;;;;;;;5.35;4.50;;;;;;;18.32;53.85;94662.50;5075656;28;20181;-67
2023/05/22 08:35:11;;;;;;;5.93;4.78;;;;;;;18.54;53.29;94668.66;5075160;28;20219;-66
2023/05/22 08:37:39;;;;;;;5.15;4.35;;;;;;;18.63;51.82;94671.78;5071613;28;20205;-66
2023/05/22 08:40:14;;;;;;;5.95;4.10;;;;;;;18.76;50.00;94663.69;5074578;28;20556;-67
2023/05/22 08:42:44;;;;;;;4.82;3.53;;;;;;;18.98;50.00;94669.81;5074553;28;20202;-65
2023/05/22 08:45:15;;;;;;;4.68;3.65;;;;;;;19.00;50.73;94665.41;5074499;28;20204;-65
2023/05/22 08:47:47;;;;;;;5.95;4.30;;;;;;;18.97;50.42;94662.66;5074172;28;20668;-65
2023/05/22 08:50:15;;;;;;;6.00;4.13;;;;;;;18.90;51.16;94659.94;5075347;28;20197;-65
2023/05/22 08:52:48;;;;;;;4.47;3.80;;;;;;;18.76;48.33;94658.09;5074690;28;20235;-64
2023/05/22 08:55:15;;;;;;;4.35;3.78;;;;;;;18.66;49.65;94658.97;5075141;28;20197;-64
2023/05/22 08:57:45;;;;;;;5.20;3.88;;;;;;;18.57;46.45;94664.25;5075302;28;20225;-64
2023/05/22 09:00:16;;;;;;;6.25;3.38;;;;;;;18.64;47.00;94659.41;5075122;28;20208;-64
2023/05/22 09:02:51;;;;;;;6.53;3.25;;;;;;;18.81;46.55;94660.44;5074813;28;20208;-64
2023/05/22 09:05:25;;;;;;;4.88;3.33;;;;;;;18.87;47.78;94650.38;5076201;28;20224;-64
2023/05/22 09:07:54;;;;;;;4.63;3.67;;;;;;;18.83;46.97;94646.06;5074856;28;20197;-64
2023/05/22 09:10:22;;;;;;;5.90;4.18;;;;;;;18.77;48.17;94648.50;5075492;28;20250;-64
2023/05/22 09:13:08;;;;;;;3.88;3.47;;;;;;;18.77;48.39;94654.09;5075583;28;20254;-64
2023/05/22 09:15:38;;;;;;;4.20;3.72;;;;;;;18.69;49.10;94647.75;5075347;28;20266;-64
2023/05/22 09:18:13;;;;;;;6.78;3.78;;;;;;;18.66;47.59;94642.22;5075332;28;20252;-64
2023/05/22 09:20:41;;;;;;;3.95;3.47;;;;;;;18.56;49.56;94643.91;5074996;28;20219;-64
2023/05/22 09:23:16;;;;;;;4.57;4.18;;;;;;;18.56;49.50;94652.31;5075900;28;20185;-64
2023/05/22 09:25:45;;;;;;;3.67;3.38;;;;;;;18.53;47.15;94644.75;5075847;28;20187;-64
2023/05/22 09:28:12;;;;;;;4.05;3.55;;;;;;;18.49;46.38;94646.78;5075324;28;20200;-65
2023/05/22 09:30:42;;;;;;;4.65;3.67;;;;;;;18.47;46.06;94643.59;5075496;28;20197;-64
2023/05/22 09:33:15;;;;;;;3.30;3.00;;;;;;;18.46;45.43;94654.00;5075391;28;20213;-65
2023/05/22 09:35:46;;;;;;;5.10;3.33;;;;;;;18.56;45.03;94643.91;5075253;28;20213;-64
2023/05/22 09:38:14;;;;;;;4.72;3.28;;;;;;;18.63;45.97;94640.28;5074235;28;20209;-64
2023/05/22 09:40:42;;;;;;;4.63;3.60;;;;;;;18.66;47.85;94648.56;5074294;28;20219;-64
2023/05/22 09:43:11;;;;;;;6.88;4.40;;;;;;;18.65;49.74;94643.41;5078427;28;20185;-64
2023/05/22 09:45:39;;;;;;;4.55;4.13;;;;;;;18.72;50.49;94649.75;5078739;28;20507;-64
2023/05/22 09:48:12;;;;;;;4.32;3.63;;;;;;;18.86;50.48;94648.81;5079334;28;20212;-64
2023/05/22 09:50:41;;;;;;;4.97;3.85;;;;;;;18.89;50.63;94649.97;5079325;28;20189;-64
2023/05/22 09:53:13;;;;;;;5.72;3.92;;;;;;;18.86;51.96;94639.63;5078417;28;20197;-64
2023/05/22 09:55:43;;;;;;;5.15;3.63;;;;;;;18.92;51.23;94643.56;5079108;28;20189;-64
2023/05/22 09:58:16;;;;;;;5.18;4.18;;;;;;;19.02;51.14;94639.03;5079276;28;20276;-64
2023/05/22 10:00:44;;;;;;;4.13;3.80;;;;;;;18.96;49.88;94644.31;5078541;28;20295;-64
2023/05/22 10:03:18;;;;;;;4.32;3.92;;;;;;;18.80;49.87;94650.47;5077624;28;20193;-64
2023/05/22 10:05:48;;;;;;;4.57;4.13;;;;;;;18.64;51.46;94651.00;5077187;28;20614;-64
2023/05/22 10:08:21;;;;;;;4.28;3.80;;;;;;;18.53;50.75;94656.72;5078359;28;20191;-64
2023/05/22 10:10:52;;;;;;;5.35;4.82;;;;;;;18.48;51.21;94650.75;5077552;28;20352;-64
2023/05/22 10:13:20;;;;;;;9.15;5.25;;;;;;;18.41;51.40;94660.03;5077802;28;20278;-64
2023/05/22 10:15:50;;;;;;;4.82;4.43;;;;;;;18.39;52.48;94656.06;5077288;28;20508;-64
2023/05/22 10:18:26;;;;;;;4.95;4.28;;;;;;;18.34;52.66;94654.50;5078184;28;20668;-64
2023/05/22 10:20:54;;;;;;;4.63;4.22;;;;;;;18.33;53.27;94655.69;5077317;28;20251;-64
2023/05/22 10:23:25;;;;;;;4.18;3.78;;;;;;;18.36;53.55;94662.47;5076821;28;20201;-64
2023/05/22 10:25:55;;;;;;;4.15;3.75;;;;;;;18.33;51.24;94660.50;5077931;28;20173;-65
2023/05/22 10:28:27;;;;;;;3.83;3.53;;;;;;;18.29;51.56;94652.94;5077917;28;20272;-65
2023/05/22 10:31:00;;;;;;;4.35;3.95;;;;;;;18.25;51.27;94654.19;5077128;28;20205;-64
2023/05/22 10:33:42;;;;;;;4.22;3.80;;;;;;;18.18;51.29;94649.44;5077457;28;20547;-64
2023/05/22 10:36:13;;;;;;;4.75;3.60;;;;;;;18.13;50.96;94651.91;5061186;28;20220;-64
2023/05/22 10:38:52;;;;;;;4.85;3.78;;;;;;;18.06;51.87;94652.75;5077146;28;20200;-65
2023/05/22 10:41:20;;;;;;;10.85;4.10;;;;;;;17.99;51.85;94652.81;5077417;28;20624;-64
2023/05/22 10:43:49;;;;;;;5.95;4.57;;;;;;;17.93;52.44;94663.59;5078026;28;20196;-64
2023/05/22 10:46:18;;;;;;;4.40;3.80;;;;;;;17.87;52.98;94668.06;5077514;28;20629;-64
2023/05/22 10:48:50;;;;;;;21.30;4.28;;;;;;;17.78;53.50;94673.28;5076768;28;20201;-64
2023/05/22 10:51:22;;;;;;;6.28;4.30;;;;;;;17.67;55.43;94684.47;5077481;28;20501;-64
2023/05/22 10:53:52;;;;;;;4.38;3.92;;;;;;;17.60;57.67;94692.88;5077430;28;20188;-64
2023/05/22 10:56:21;;;;;;;4.57;4.05;;;;;;;17.48;60.36;94694.16;5076974;28;20217;-64
2023/05/22 10:59:01;;;;;;;4.00;3.70;;;;;;;17.36;60.50;94671.50;5076318;28;20621;-64
2023/05/22 11:01:29;;;;;;;4.63;4.13;;;;;;;17.23;62.78;94671.19;5076597;28;20197;-64
2023/05/22 11:04:11;;;;;;;4.53;4.13;;;;;;;17.13;64.13;94666.44;5076662;28;20197;-64
2023/05/22 11:06:41;;;;;;;8.20;4.43;;;;;;;17.08;66.13;94670.47;5076814;28;20201;-64
2023/05/22 11:09:36;;;;;;;5.25;4.50;;;;;;;17.09;67.06;94663.69;5077741;28;20185;-64
2023/05/22 11:12:18;;;;;;;4.82;4.30;;;;;;;17.07;67.67;94658.53;5076383;28;20208;-64
2023/05/22 11:14:52;;;;;;;4.72;4.18;;;;;;;17.11;67.11;94664.09;5077479;28;20250;-64
2023/05/22 11:17:31;;;;;;;5.07;4.63;;;;;;;17.26;67.15;94653.66;5077196;28;20232;-64
2023/05/22 11:20:01;;;;;;;5.38;4.57;;;;;;;17.46;66.96;94660.31;5077645;28;20201;-65
2023/05/22 11:22:39;;;;;;;4.97;4.47;;;;;;;17.53;64.91;94649.09;5076457;28;20216;-64
2023/05/22 11:25:11;;;;;;;6.28;4.57;;;;;;;17.51;64.84;94650.72;5075820;28;20211;-65
2023/05/22 11:27:42;;;;;;;4.75;4.25;;;;;;;17.53;64.21;94653.88;5076603;28;20279;-68
2023/05/22 11:30:14;;;;;;;4.72;4.18;;;;;;;17.54;61.91;94641.56;5076789;28;20242;-64
2023/05/22 11:32:46;;;;;;;4.47;4.10;;;;;;;17.56;62.00;94644.72;5075716;28;20197;-64
2023/05/22 11:35:19;;;;;;;6.55;4.03;;;;;;;17.56;62.17;94648.28;5075518;28;20193;-64
2023/05/22 11:37:49;;;;;;;4.65;4.25;;;;;;;17.50;61.38;94651.91;5076937;28;20201;-65
2023/05/22 11:40:20;;;;;;;4.30;3.90;;;;;;;17.37;62.37;94696.22;5076738;28;20196;-65
2023/05/22 11:42:49;;;;;;;7.43;4.50;;;;;;;17.28;65.99;94704.19;5075704;28;20200;-64
2023/05/22 11:45:20;;;;;;;4.90;3.60;;;;;;;17.04;65.53;94706.69;5076639;28;20276;-64
2023/05/22 11:47:48;;;;;;;6.80;4.10;;;;;;;16.64;66.34;94707.97;5076223;28;20211;-64